Time;durP1;ratioP1;P1;durP2;ratioP2;P2;SDS_P1;SDS_P2;PMS_P1;PMS_P2;Temp;Humidity;BMP_temperature;BMP_pressure;BME280_temperature;BME280_humidity;BME280_pressure;Samples;Min_cycle;Max_cycle;Signal;HPM_P1;HPM_P2
2021/01/23 00:00:13;;;;;;;17.60;8.93;;;5.20;83.90;;;;;;5053296;28;20390;-75
2021/01/23 00:02:39;;;;;;;16.13;9.00;;;5.20;85.20;;;;;;5052060;28;20040;-75
2021/01/23 00:05:05;;;;;;;18.03;8.90;;;5.30;84.30;;;;;;5053540;28;20116;-75
2021/01/23 00:07:31;;;;;;;15.13;8.47;;;5.20;85.10;;;;;;5052147;28;20025;-75
2021/01/23 00:09:57;;;;;;;13.07;8.40;;;5.10;85.60;;;;;;5052533;28;20086;-75
2021/01/23 00:12:22;;;;;;;16.40;9.50;;;5.10;85.90;;;;;;5052234;28;20029;-75
2021/01/23 00:14:48;;;;;;;14.93;7.97;;;5.00;86.30;;;;;;5053174;28;20111;-76
2021/01/23 00:17:13;;;;;;;14.93;7.53;;;4.90;87.00;;;;;;5053235;28;20031;-76
2021/01/23 00:19:39;;;;;;;15.87;8.47;;;4.90;87.20;;;;;;5052110;28;20115;-75
2021/01/23 00:22:04;;;;;;;15.07;8.47;;;4.80;87.20;;;;;;5053228;28;20057;-76
2021/01/23 00:24:30;;;;;;;20.43;8.27;;;4.80;87.50;;;;;;5057361;28;20124;-75
2021/01/23 00:26:55;;;;;;;11.97;7.63;;;4.70;87.70;;;;;;5057326;28;20025;-76
2021/01/23 00:29:21;;;;;;;11.97;7.30;;;4.70;88.00;;;;;;5057283;28;20466;-76
2021/01/23 00:31:47;;;;;;;12.73;7.63;;;4.60;88.30;;;;;;5055921;28;20028;-76
2021/01/23 00:34:12;;;;;;;15.60;8.27;;;4.60;88.40;;;;;;5055855;28;20037;-76
2021/01/23 00:36:38;;;;;;;16.40;8.00;;;4.70;88.30;;;;;;5056068;28;20025;-76
2021/01/23 00:39:05;;;;;;;14.23;8.17;;;4.70;87.90;;;;;;5055915;28;20470;-76
2021/01/23 00:41:30;;;;;;;14.90;6.83;;;4.80;87.50;;;;;;5055758;28;20402;-75
2021/01/23 00:43:56;;;;;;;14.37;7.67;;;4.80;87.60;;;;;;5056201;28;20044;-76
2021/01/23 00:46:22;;;;;;;17.23;7.70;;;4.80;87.50;;;;;;5038978;28;20029;-75
2021/01/23 00:48:51;;;;;;;14.83;7.53;;;4.90;87.50;;;;;;5056901;28;20048;-76
2021/01/23 00:51:16;;;;;;;13.27;6.90;;;4.90;87.20;;;;;;5056048;28;20040;-75
2021/01/23 00:53:44;;;;;;;14.53;7.50;;;4.90;87.20;;;;;;5055650;28;20021;-76
2021/01/23 00:56:09;;;;;;;12.93;7.20;;;4.80;87.20;;;;;;5056849;28;20027;-76
2021/01/23 00:58:35;;;;;;;13.03;7.00;;;4.90;87.40;;;;;;5055626;28;20112;-76
2021/01/23 01:01:01;;;;;;;14.00;7.07;;;4.90;87.40;;;;;;5056325;28;20447;-76
2021/01/23 01:03:26;;;;;;;8.90;6.63;;;4.90;87.60;;;;;;5056001;28;20032;-76
2021/01/23 01:05:52;;;;;;;18.67;7.33;;;4.80;87.60;;;;;;5055444;28;20390;-76
2021/01/23 01:08:17;;;;;;;12.67;7.70;;;4.90;87.40;;;;;;5055387;28;20064;-76
2021/01/23 01:10:45;;;;;;;13.87;6.80;;;5.10;86.60;;;;;;5055387;28;20033;-76
2021/01/23 01:13:14;;;;;;;12.30;6.77;;;5.00;86.80;;;;;;5056281;28;20031;-76
2021/01/23 01:15:40;;;;;;;14.00;6.67;;;5.00;86.80;;;;;;5055400;28;20033;-76
2021/01/23 01:18:06;;;;;;;12.13;7.03;;;5.00;87.10;;;;;;5056300;28;20339;-76
2021/01/23 01:20:31;;;;;;;16.17;7.47;;;5.00;86.80;;;;;;5056504;28;20040;-75
2021/01/23 01:22:57;;;;;;;13.70;6.87;;;4.90;87.20;;;;;;5056358;28;20029;-76
2021/01/23 01:25:22;;;;;;;18.20;6.93;;;4.90;87.40;;;;;;5055130;28;20029;-75
2021/01/23 01:27:48;;;;;;;12.23;6.10;;;4.90;87.30;;;;;;5038416;28;20405;-75
2021/01/23 01:30:14;;;;;;;13.37;5.80;;;4.90;87.10;;;;;;5055138;28;20025;-75
2021/01/23 01:32:40;;;;;;;10.87;5.30;;;5.00;86.70;;;;;;5056061;28;20029;-75
2021/01/23 01:35:06;;;;;;;15.33;6.17;;;5.00;86.50;;;;;;5055262;28;20361;-75
2021/01/23 01:37:31;;;;;;;8.27;4.80;;;5.00;86.70;;;;;;5054676;28;20025;-75
2021/01/23 01:39:57;;;;;;;11.40;4.93;;;5.00;86.90;;;;;;5054657;28;20033;-75
2021/01/23 01:42:23;;;;;;;8.33;4.83;;;5.10;86.80;;;;;;5054666;28;20114;-75
2021/01/23 01:44:48;;;;;;;11.33;4.67;;;5.10;86.70;;;;;;5054688;28;20389;-75
2021/01/23 01:47:14;;;;;;;7.50;4.40;;;5.10;86.70;;;;;;5055078;28;20025;-75
2021/01/23 01:49:39;;;;;;;12.70;4.77;;;5.00;86.80;;;;;;5054429;28;20060;-75
2021/01/23 01:52:05;;;;;;;8.10;3.90;;;5.00;86.80;;;;;;5054504;28;20025;-75
2021/01/23 01:54:31;;;;;;;8.77;4.20;;;5.00;86.50;;;;;;5055699;28;20025;-75
2021/01/23 01:56:56;;;;;;;10.50;3.90;;;5.10;86.40;;;;;;5054512;28;20032;-75
2021/01/23 01:59:22;;;;;;;9.57;3.87;;;5.10;86.30;;;;;;5055527;28;20033;-75
2021/01/23 02:01:48;;;;;;;6.30;3.77;;;5.10;86.10;;;;;;5055415;28;20090;-75
2021/01/23 02:04:19;;;;;;;8.30;3.90;;;5.10;85.80;;;;;;5037760;28;20035;-75
2021/01/23 02:07:17;;;;;;;6.27;3.50;;;5.00;85.90;;;;;;5054217;28;20029;-75
2021/01/23 02:09:48;;;;;;;7.30;3.73;;;5.10;85.70;;;;;;5055200;28;20025;-76
2021/01/23 02:12:30;;;;;;;8.13;3.37;;;4.90;86.20;;;;;;5055440;28;20100;-75
2021/01/23 02:15:11;;;;;;;8.43;3.80;;;4.90;85.90;;;;;;5037595;28;20115;-76
2021/01/23 02:17:41;;;;;;;7.13;3.50;;;5.00;86.10;;;;;;5037967;28;20017;-75
2021/01/23 02:20:20;;;;;;;5.17;3.37;;;5.00;85.80;;;;;;5015883;28;20032;-75
2021/01/23 02:22:55;;;;;;;7.07;3.00;;;4.90;85.90;;;;;;5054189;28;20112;-75
2021/01/23 02:25:20;;;;;;;7.17;3.10;;;4.90;85.60;;;;;;5054917;28;20028;-75
2021/01/23 02:28:13;;;;;;;9.47;2.70;;;4.90;85.80;;;;;;5053924;28;20025;-75
2021/01/23 02:30:41;;;;;;;7.30;3.60;;;4.80;86.10;;;;;;5039658;28;20373;-75
2021/01/23 02:33:06;;;;;;;10.80;2.97;;;4.70;86.60;;;;;;5054977;28;20496;-75
2021/01/23 02:35:32;;;;;;;9.07;2.80;;;4.70;86.80;;;;;;5037305;28;20056;-75
2021/01/23 02:37:57;;;;;;;5.60;3.00;;;4.70;86.90;;;;;;5037594;28;20029;-75
2021/01/23 02:40:23;;;;;;;4.07;2.70;;;4.60;87.20;;;;;;5036969;28;20036;-75
2021/01/23 02:42:49;;;;;;;7.03;3.40;;;4.60;87.40;;;;;;5036986;28;20025;-75
2021/01/23 02:45:15;;;;;;;8.57;3.70;;;4.60;88.00;;;;;;5036762;28;20108;-75
2021/01/23 02:47:40;;;;;;;6.57;3.73;;;4.50;87.50;;;;;;5053252;28;20033;-75
2021/01/23 02:50:06;;;;;;;6.13;3.70;;;4.50;87.50;;;;;;5054919;28;20041;-75
2021/01/23 02:52:47;;;;;;;9.70;3.97;;;4.50;87.70;;;;;;5036662;28;20036;-75
2021/01/23 02:55:19;;;;;;;9.80;4.50;;;4.40;87.80;;;;;;5038131;28;20473;-75
2021/01/23 02:57:44;;;;;;;8.87;4.27;;;4.40;87.70;;;;;;5036910;28;20389;-75
2021/01/23 03:00:11;;;;;;;7.33;4.33;;;4.40;87.60;;;;;;5036831;28;20033;-75
2021/01/23 03:02:46;;;;;;;11.60;4.50;;;4.40;87.50;;;;;;5053377;28;20053;-75
2021/01/23 03:05:12;;;;;;;9.00;4.70;;;4.50;87.30;;;;;;5036878;28;20033;-75
2021/01/23 03:07:38;;;;;;;10.47;4.90;;;4.60;86.70;;;;;;5036586;28;20027;-75
2021/01/23 03:10:07;;;;;;;9.53;5.10;;;4.60;86.40;;;;;;5036452;28;20060;-75
2021/01/23 03:12:33;;;;;;;10.70;4.93;;;4.60;86.60;;;;;;5053990;28;20025;-75
2021/01/23 03:14:59;;;;;;;12.77;5.43;;;4.50;86.60;;;;;;5054304;28;20078;-75
2021/01/23 03:17:25;;;;;;;12.33;5.00;;;4.70;85.90;;;;;;5054060;28;20029;-75
2021/01/23 03:19:50;;;;;;;9.57;4.63;;;4.50;86.60;;;;;;5036274;28;20080;-75
2021/01/23 03:22:16;;;;;;;12.90;5.73;;;4.40;86.90;;;;;;5052983;28;20029;-75
2021/01/23 03:24:42;;;;;;;15.37;5.73;;;4.40;87.10;;;;;;5053864;28;20386;-75
2021/01/23 03:27:07;;;;;;;12.00;5.20;;;4.30;87.20;;;;;;5053991;28;20470;-75
2021/01/23 03:29:33;;;;;;;11.07;5.37;;;4.30;87.20;;;;;;5052808;28;20037;-75
2021/01/23 03:31:58;;;;;;;11.43;4.60;;;4.20;87.60;;;;;;5052696;28;20021;-75
2021/01/23 03:34:24;;;;;;;16.60;6.20;;;4.10;88.30;;;;;;5053914;28;20529;-75
2021/01/23 03:36:49;;;;;;;16.63;5.60;;;4.10;88.00;;;;;;5053649;28;20035;-75
2021/01/23 03:39:15;;;;;;;13.77;5.77;;;4.10;87.90;;;;;;5052220;28;20033;-75
2021/01/23 03:41:40;;;;;;;10.17;5.33;;;4.20;87.20;;;;;;5053547;28;20355;-76
2021/01/23 03:44:06;;;;;;;11.20;4.93;;;4.30;86.70;;;;;;5052796;28;20031;-75
2021/01/23 03:46:33;;;;;;;15.27;5.07;;;4.20;87.20;;;;;;5053670;28;20422;-75
2021/01/23 03:48:58;;;;;;;12.47;4.73;;;4.00;88.10;;;;;;5052546;28;20037;-75
2021/01/23 03:51:24;;;;;;;11.17;4.60;;;4.00;88.40;;;;;;5052276;28;20055;-75
2021/01/23 03:53:49;;;;;;;12.93;4.50;;;3.90;88.90;;;;;;5052330;28;20074;-75
2021/01/23 03:56:15;;;;;;;9.53;4.83;;;3.80;89.00;;;;;;5053503;28;20398;-75
2021/01/23 03:58:41;;;;;;;12.50;5.20;;;3.90;88.60;;;;;;5035638;28;20064;-75
2021/01/23 04:01:06;;;;;;;13.47;4.37;;;3.90;88.80;;;;;;5052469;28;20036;-75
2021/01/23 04:03:32;;;;;;;8.83;4.27;;;3.90;88.70;;;;;;5053399;28;20029;-75
2021/01/23 04:05:57;;;;;;;11.47;4.37;;;3.80;89.00;;;;;;5053600;28;20021;-75
2021/01/23 04:08:23;;;;;;;10.03;4.50;;;3.70;89.40;;;;;;5053214;28;20386;-75
2021/01/23 04:10:49;;;;;;;10.30;4.73;;;3.70;89.50;;;;;;5053219;28;20040;-75
2021/01/23 04:13:14;;;;;;;10.60;4.53;;;3.70;89.70;;;;;;5052399;28;20032;-75
2021/01/23 04:15:40;;;;;;;10.30;4.20;;;3.70;89.40;;;;;;5052235;28;20496;-74
2021/01/23 04:18:05;;;;;;;9.57;4.67;;;3.70;89.00;;;;;;5052042;28;20036;-75
2021/01/23 04:20:32;;;;;;;17.93;5.17;;;3.70;89.30;;;;;;5053289;28;20041;-75
2021/01/23 04:22:57;;;;;;;7.97;4.73;;;3.70;89.00;;;;;;5035344;28;20080;-75
2021/01/23 04:25:23;;;;;;;11.97;5.20;;;3.70;88.80;;;;;;5052112;28;20033;-75
2021/01/23 04:27:49;;;;;;;12.37;4.37;;;3.80;88.70;;;;;;5053315;28;20033;-75
2021/01/23 04:30:15;;;;;;;9.37;4.97;;;3.70;89.20;;;;;;5053610;28;20029;-75
2021/01/23 04:32:40;;;;;;;8.50;4.63;;;3.70;89.80;;;;;;5053327;28;20036;-75
2021/01/23 04:35:09;;;;;;;8.67;4.43;;;3.60;90.10;;;;;;5051894;28;20029;-75
2021/01/23 04:37:38;;;;;;;13.60;4.37;;;3.50;90.20;;;;;;5035287;28;20029;-75
2021/01/23 04:40:05;;;;;;;10.80;4.77;;;3.60;90.20;;;;;;5053381;28;20124;-75
2021/01/23 04:42:30;;;;;;;12.10;5.57;;;3.50;90.30;;;;;;5035677;28;20047;-75
2021/01/23 04:44:56;;;;;;;15.07;5.80;;;3.50;90.10;;;;;;5051985;28;20075;-75
2021/01/23 04:47:21;;;;;;;13.60;4.67;;;3.50;90.20;;;;;;5053047;28;20043;-75
2021/01/23 04:49:47;;;;;;;11.30;4.33;;;3.50;90.30;;;;;;5052963;28;20438;-75
2021/01/23 04:52:14;;;;;;;11.27;5.13;;;3.50;90.30;;;;;;5051899;28;20029;-75
2021/01/23 04:54:42;;;;;;;18.43;4.43;;;3.50;90.30;;;;;;5052319;28;20474;-76
2021/01/23 04:57:07;;;;;;;12.97;4.73;;;3.50;90.30;;;;;;5036010;28;20078;-75
2021/01/23 04:59:33;;;;;;;12.90;5.00;;;3.50;90.30;;;;;;5035061;28;20040;-75
2021/01/23 05:02:18;;;;;;;9.87;4.67;;;3.50;90.30;;;;;;5052929;28;20029;-76
2021/01/23 05:04:47;;;;;;;12.83;4.50;;;3.50;90.40;;;;;;5051610;28;20026;-75
2021/01/23 05:07:26;;;;;;;10.87;4.37;;;3.40;90.40;;;;;;5051774;28;20033;-75
2021/01/23 05:09:52;;;;;;;8.70;4.50;;;3.40;90.40;;;;;;5055110;28;20385;-75
2021/01/23 05:12:32;;;;;;;11.77;4.20;;;3.40;90.30;;;;;;5055410;28;20029;-75
2021/01/23 05:14:58;;;;;;;15.40;4.80;;;3.50;90.30;;;;;;5039803;28;20056;-75
2021/01/23 05:17:24;;;;;;;8.80;4.10;;;3.40;90.30;;;;;;5055037;28;20060;-75
2021/01/23 05:19:49;;;;;;;10.30;4.70;;;3.30;90.50;;;;;;5055049;28;20033;-75
2021/01/23 05:22:15;;;;;;;14.27;4.33;;;3.30;90.40;;;;;;5056336;28;20040;-75
2021/01/23 05:24:50;;;;;;;10.93;4.07;;;3.30;90.30;;;;;;5055426;28;20119;-75
2021/01/23 05:27:16;;;;;;;9.87;4.23;;;3.30;90.50;;;;;;5055110;28;20028;-75
2021/01/23 05:29:58;;;;;;;9.93;3.80;;;3.20;90.50;;;;;;5038291;28;20025;-75
2021/01/23 05:32:24;;;;;;;10.93;4.10;;;3.30;90.60;;;;;;5055069;28;20071;-75
2021/01/23 05:34:49;;;;;;;10.37;4.40;;;3.40;90.50;;;;;;5054939;28;20021;-75
2021/01/23 05:37:32;;;;;;;9.13;3.50;;;3.40;90.20;;;;;;5055140;28;20057;-75
2021/01/23 05:39:58;;;;;;;9.83;3.93;;;3.60;90.00;;;;;;5021802;28;20033;-74
2021/01/23 05:42:23;;;;;;;8.93;3.53;;;3.60;90.00;;;;;;5037900;28;20474;-75
2021/01/23 05:45:09;;;;;;;12.77;3.50;;;3.70;89.60;;;;;;5054723;28;20025;-75
2021/01/23 05:47:35;;;;;;;9.20;3.30;;;3.70;89.10;;;;;;5054408;28;20112;-75
2021/01/23 05:50:00;;;;;;;13.07;3.43;;;3.80;89.20;;;;;;5038377;28;20164;-75
2021/01/23 05:52:26;;;;;;;7.90;2.97;;;3.80;89.00;;;;;;5056010;28;20028;-75
2021/01/23 05:54:52;;;;;;;10.00;3.17;;;3.90;89.00;;;;;;5054541;28;20032;-75
2021/01/23 05:57:17;;;;;;;9.33;3.27;;;3.90;88.80;;;;;;5055729;28;20025;-75
2021/01/23 05:59:43;;;;;;;12.20;3.07;;;3.90;88.90;;;;;;5054345;28;20067;-75
2021/01/23 06:02:10;;;;;;;8.30;3.00;;;3.90;88.90;;;;;;5037908;28;20029;-75
2021/01/23 06:04:36;;;;;;;10.73;2.93;;;4.00;88.70;;;;;;5037705;28;20021;-75
2021/01/23 06:07:02;;;;;;;9.90;2.80;;;4.00;88.30;;;;;;5021057;28;20393;-76
2021/01/23 06:09:40;;;;;;;10.83;3.80;;;4.10;87.90;;;;;;5055505;28;20032;-75
2021/01/23 06:12:26;;;;;;;9.87;3.10;;;4.20;87.80;;;;;;5054138;28;20037;-74
2021/01/23 06:14:52;;;;;;;9.57;2.80;;;4.20;87.40;;;;;;5050028;28;20036;-75
2021/01/23 06:17:46;;;;;;;9.90;2.83;;;4.10;87.70;;;;;;5054212;28;20029;-74
2021/01/23 06:20:40;;;;;;;8.30;2.60;;;4.10;88.00;;;;;;5053693;28;20059;-74
2021/01/23 06:23:21;;;;;;;11.50;2.57;;;4.10;87.70;;;;;;5055088;28;20029;-74
2021/01/23 06:25:50;;;;;;;4.70;2.25;;;4.10;87.70;;;;;;5054088;28;20104;-74
2021/01/23 06:28:16;;;;;;;8.73;2.10;;;4.10;87.50;;;;;;5054907;28;20025;-74
2021/01/23 06:30:42;;;;;;;7.67;2.20;;;4.10;87.90;;;;;;5053804;28;20028;-74
2021/01/23 06:33:23;;;;;;;8.43;2.00;;;4.10;88.10;;;;;;5053659;28;20104;-74
2021/01/23 06:36:04;;;;;;;10.45;2.42;;;4.20;87.90;;;;;;5055006;28;20043;-74
2021/01/23 06:38:30;;;;;;;16.02;2.33;;;4.20;87.40;;;;;;5053723;28;20024;-74
2021/01/23 06:40:55;;;;;;;9.53;2.60;;;4.20;87.20;;;;;;5053427;28;20043;-75
2021/01/23 06:43:21;;;;;;;9.70;2.37;;;4.30;86.50;;;;;;5036937;28;20055;-74
2021/01/23 06:45:46;;;;;;;9.20;2.57;;;4.20;86.60;;;;;;5054883;28;20028;-74
2021/01/23 06:48:12;;;;;;;6.90;2.30;;;4.30;86.90;;;;;;5054413;28;20041;-74
2021/01/23 06:50:39;;;;;;;11.20;2.37;;;4.40;86.20;;;;;;5036906;28;20032;-74
2021/01/23 06:53:06;;;;;;;13.30;2.73;;;4.30;86.30;;;;;;5054401;28;20070;-74
2021/01/23 06:55:49;;;;;;;8.93;2.43;;;4.40;86.00;;;;;;5054682;28;20021;-74
2021/01/23 06:58:15;;;;;;;11.13;3.27;;;4.40;86.00;;;;;;5054595;28;20061;-74
2021/01/23 07:00:41;;;;;;;7.93;2.60;;;4.40;86.00;;;;;;5054330;28;20452;-76
2021/01/23 07:03:10;;;;;;;12.80;3.20;;;4.50;86.00;;;;;;5054468;28;20029;-74
2021/01/23 07:05:43;;;;;;;12.07;3.53;;;4.60;85.30;;;;;;5053074;28;20021;-74
2021/01/23 07:08:09;;;;;;;9.70;2.87;;;4.70;84.40;;;;;;5053097;28;20025;-75
2021/01/23 07:10:34;;;;;;;17.60;3.43;;;4.70;84.20;;;;;;5049266;28;20393;-74
2021/01/23 07:13:00;;;;;;;12.33;3.50;;;4.70;83.90;;;;;;5052986;28;20040;-74
2021/01/23 07:15:29;;;;;;;9.60;2.80;;;4.80;83.40;;;;;;5053594;28;20036;-75
2021/01/23 07:17:54;;;;;;;10.70;2.90;;;4.90;83.40;;;;;;5052168;28;20492;-75
2021/01/23 07:20:20;;;;;;;14.80;5.30;;;4.70;83.20;;;;;;5050898;28;20029;-75
2021/01/23 07:22:46;;;;;;;8.40;3.20;;;4.70;83.80;;;;;;5054111;28;20041;-75
2021/01/23 07:25:13;;;;;;;11.80;3.40;;;4.70;83.80;;;;;;5052943;28;20037;-75
2021/01/23 07:27:38;;;;;;;12.33;3.37;;;4.70;83.90;;;;;;5052698;28;20025;-75
2021/01/23 07:30:15;;;;;;;10.17;4.00;;;4.60;84.00;;;;;;5052349;28;20371;-75
2021/01/23 07:32:41;;;;;;;15.67;4.23;;;4.60;84.30;;;;;;5052954;28;20496;-75
2021/01/23 07:35:07;;;;;;;8.43;3.17;;;4.70;83.80;;;;;;5036322;28;20029;-75
2021/01/23 07:37:59;;;;;;;11.67;3.17;;;4.60;84.00;;;;;;5054082;28;20377;-75
2021/01/23 07:40:25;;;;;;;10.73;4.00;;;4.60;83.80;;;;;;5051127;28;20036;-75
2021/01/23 07:42:51;;;;;;;11.47;3.30;;;4.50;84.00;;;;;;5053541;28;20033;-75
2021/01/23 07:45:18;;;;;;;9.97;3.43;;;4.50;83.80;;;;;;5052929;28;20032;-75
2021/01/23 07:47:56;;;;;;;11.07;3.10;;;4.60;83.30;;;;;;5035818;28;20025;-75
2021/01/23 07:50:22;;;;;;;8.87;3.20;;;4.50;83.80;;;;;;5053010;28;20086;-75
2021/01/23 07:52:48;;;;;;;12.40;3.30;;;4.60;84.00;;;;;;5036208;28;20045;-76
2021/01/23 07:55:14;;;;;;;9.93;3.50;;;4.60;83.60;;;;;;5052005;28;20082;-76
2021/01/23 07:57:39;;;;;;;9.53;3.17;;;4.60;83.60;;;;;;5051118;28;20394;-76
2021/01/23 08:00:06;;;;;;;9.97;4.07;;;4.90;83.00;;;;;;5052347;28;20107;-76
2021/01/23 08:02:51;;;;;;;8.67;3.27;;;5.10;81.70;;;;;;5053398;28;20111;-76
2021/01/23 08:05:17;;;;;;;6.20;3.27;;;5.30;80.70;;;;;;5052393;28;20463;-76
2021/01/23 08:07:42;;;;;;;11.03;3.43;;;5.00;81.10;;;;;;5052342;28;20023;-76
2021/01/23 08:10:20;;;;;;;11.77;3.53;;;4.90;82.10;;;;;;5053164;28;20534;-76
2021/01/23 08:12:59;;;;;;;11.03;3.67;;;5.10;81.80;;;;;;5053540;28;20056;-76
2021/01/23 08:15:29;;;;;;;11.10;3.33;;;5.30;80.50;;;;;;5053115;28;20478;-76
2021/01/23 08:17:55;;;;;;;6.33;2.83;;;5.50;79.40;;;;;;5053218;28;20401;-77
2021/01/23 08:20:38;;;;;;;10.10;3.40;;;5.50;79.70;;;;;;5051937;28;20095;-77
2021/01/23 08:23:09;;;;;;;10.60;3.27;;;5.40;79.80;;;;;;5053406;28;20029;-76
2021/01/23 08:25:55;;;;;;;13.15;2.80;;;5.40;79.80;;;;;;5052814;28;20027;-77
2021/01/23 08:28:40;;;;;;;10.13;3.13;;;5.40;79.40;;;;;;5052963;28;20032;-76
2021/01/23 08:31:24;;;;;;;8.03;3.03;;;5.30;80.00;;;;;;5053039;28;20086;-76
2021/01/23 08:33:54;;;;;;;11.53;3.57;;;5.30;80.40;;;;;;5053158;28;20029;-76
2021/01/23 08:36:21;;;;;;;8.67;3.63;;;5.40;80.20;;;;;;5053082;28;20029;-76
2021/01/23 08:38:47;;;;;;;11.40;3.70;;;5.20;80.40;;;;;;5053117;28;20079;-76
2021/01/23 08:41:13;;;;;;;8.53;3.00;;;5.30;80.50;;;;;;5051410;28;20083;-76
2021/01/23 08:43:38;;;;;;;8.20;2.70;;;5.20;80.40;;;;;;5055314;28;20420;-76
2021/01/23 08:46:04;;;;;;;9.43;2.73;;;5.10;80.80;;;;;;5057325;28;20402;-76
2021/01/23 08:48:29;;;;;;;11.17;3.63;;;5.10;81.50;;;;;;5057284;28;20071;-76
2021/01/23 08:50:55;;;;;;;11.20;3.40;;;5.30;81.10;;;;;;5056838;28;20470;-76
2021/01/23 08:53:21;;;;;;;12.60;3.37;;;5.30;80.60;;;;;;5056905;28;20029;-76
2021/01/23 08:55:46;;;;;;;7.40;3.10;;;5.40;80.30;;;;;;5056702;28;20052;-76
2021/01/23 08:58:12;;;;;;;12.03;4.57;;;5.40;79.60;;;;;;5056551;28;20028;-76
2021/01/23 09:00:37;;;;;;;9.13;3.63;;;5.50;80.30;;;;;;5055524;28;20037;-76
2021/01/23 09:03:03;;;;;;;7.50;2.93;;;5.30;80.70;;;;;;5056865;28;20405;-77
2021/01/23 09:05:29;;;;;;;6.00;2.87;;;5.20;80.90;;;;;;5056600;28;20032;-75
2021/01/23 09:07:55;;;;;;;8.63;2.87;;;5.20;80.90;;;;;;5055580;28;20104;-76
2021/01/23 09:10:20;;;;;;;7.40;3.17;;;5.30;80.70;;;;;;5056243;28;20116;-76
2021/01/23 09:12:47;;;;;;;11.70;3.20;;;5.30;80.40;;;;;;5056277;28;20056;-75
2021/01/23 09:15:13;;;;;;;12.83;3.60;;;5.40;80.70;;;;;;5038877;28;20056;-75
2021/01/23 09:17:39;;;;;;;15.27;3.30;;;5.20;80.40;;;;;;5056246;28;20033;-75
2021/01/23 09:20:06;;;;;;;10.13;3.57;;;5.30;80.30;;;;;;5056405;28;20064;-75
2021/01/23 09:22:32;;;;;;;8.40;3.10;;;5.40;80.40;;;;;;5053092;28;20484;-76
2021/01/23 09:24:59;;;;;;;10.80;3.30;;;5.50;79.70;;;;;;5052663;28;20095;-77
2021/01/23 09:27:25;;;;;;;9.03;3.10;;;5.40;79.80;;;;;;5053862;28;20052;-76
2021/01/23 09:29:50;;;;;;;17.80;4.00;;;5.60;79.70;;;;;;5055848;28;20052;-76
2021/01/23 09:32:17;;;;;;;9.87;3.87;;;5.80;79.30;;;;;;5054178;28;20021;-77
2021/01/23 09:34:43;;;;;;;16.30;4.23;;;6.00;78.20;;;;;;5049083;28;20144;-76
2021/01/23 09:37:09;;;;;;;11.20;4.03;;;6.20;77.20;;;;;;5052030;28;20095;-76
2021/01/23 09:39:34;;;;;;;8.63;3.57;;;6.30;76.80;;;;;;5053596;28;20025;-76
2021/01/23 09:42:00;;;;;;;8.67;3.83;;;6.10;77.40;;;;;;5037808;28;20083;-76
2021/01/23 09:44:26;;;;;;;11.33;4.07;;;6.20;77.30;;;;;;5055301;28;20480;-76
2021/01/23 09:46:52;;;;;;;12.93;3.77;;;6.30;76.90;;;;;;5037192;28;20032;-77
2021/01/23 09:49:18;;;;;;;8.53;3.30;;;6.30;76.60;;;;;;5037122;28;20035;-76
2021/01/23 09:51:44;;;;;;;9.97;4.07;;;6.50;76.60;;;;;;5049064;28;20033;-80
2021/01/23 09:54:09;;;;;;;7.87;3.60;;;6.40;76.50;;;;;;5048738;28;20036;-76
2021/01/23 09:56:35;;;;;;;11.73;3.80;;;6.20;77.50;;;;;;5052110;28;20025;-76
2021/01/23 09:59:00;;;;;;;12.80;4.43;;;6.20;78.00;;;;;;5053426;28;20044;-79
2021/01/23 10:01:26;;;;;;;12.70;4.63;;;6.00;78.00;;;;;;5055105;28;20037;-76
2021/01/23 10:03:51;;;;;;;13.07;3.90;;;6.00;79.20;;;;;;5048059;28;20470;-77
2021/01/23 10:06:17;;;;;;;8.27;4.07;;;6.10;78.30;;;;;;5052808;28;20025;-76
2021/01/23 10:08:43;;;;;;;12.80;3.37;;;6.20;78.60;;;;;;5054944;28;20025;-76
2021/01/23 10:11:08;;;;;;;12.97;3.57;;;6.00;78.20;;;;;;5054742;28;20055;-76
2021/01/23 10:13:34;;;;;;;11.27;3.90;;;5.80;79.30;;;;;;5053245;28;20028;-75
2021/01/23 10:16:00;;;;;;;12.77;5.63;;;5.90;79.70;;;;;;5053346;28;20103;-76
2021/01/23 10:18:26;;;;;;;11.87;6.03;;;6.00;79.40;;;;;;5054853;28;20037;-76
2021/01/23 10:20:51;;;;;;;10.10;4.83;;;6.00;80.20;;;;;;5053103;28;20037;-75
2021/01/23 10:23:17;;;;;;;7.63;4.10;;;6.00;79.50;;;;;;5051285;28;20075;-77
2021/01/23 10:25:42;;;;;;;9.93;4.60;;;6.20;79.20;;;;;;5048623;28;20082;-76
2021/01/23 10:28:08;;;;;;;9.20;4.40;;;6.30;79.20;;;;;;5053583;28;20021;-78
2021/01/23 10:30:34;;;;;;;11.00;4.60;;;6.40;78.10;;;;;;5053156;28;20033;-76
2021/01/23 10:32:59;;;;;;;16.17;4.67;;;6.50;78.50;;;;;;5054459;28;20021;-76
2021/01/23 10:35:25;;;;;;;10.40;4.33;;;6.60;78.30;;;;;;5054760;28;20474;-76
2021/01/23 10:37:50;;;;;;;9.23;4.80;;;6.50;78.50;;;;;;5054960;28;20108;-77
2021/01/23 10:40:16;;;;;;;9.87;4.40;;;6.30;79.50;;;;;;5053372;28;20038;-77
2021/01/23 10:42:42;;;;;;;15.57;5.87;;;6.60;79.40;;;;;;5054609;28;20099;-77
2021/01/23 10:45:08;;;;;;;14.33;5.67;;;6.80;78.20;;;;;;5052567;28;20028;-77
2021/01/23 10:47:35;;;;;;;11.65;5.20;;;7.10;77.80;;;;;;5053170;28;20158;-77
2021/01/23 10:50:01;;;;;;;14.27;5.43;;;7.30;76.50;;;;;;5048123;28;20060;-77
2021/01/23 10:52:27;;;;;;;12.17;6.10;;;7.40;75.80;;;;;;5052436;28;20021;-76
2021/01/23 10:54:53;;;;;;;10.17;5.80;;;7.50;75.60;;;;;;5054003;28;20032;-77
2021/01/23 10:57:18;;;;;;;10.40;5.50;;;7.70;75.50;;;;;;5054177;28;20466;-76
2021/01/23 10:59:44;;;;;;;14.38;5.90;;;7.90;74.60;;;;;;5051931;28;20111;-76
2021/01/23 11:02:09;;;;;;;23.27;7.07;;;7.90;74.10;;;;;;5049048;28;20047;-77
2021/01/23 11:04:35;;;;;;;13.03;6.90;;;8.10;74.20;;;;;;5053081;28;20025;-76
2021/01/23 11:07:01;;;;;;;10.50;5.87;;;8.10;73.30;;;;;;5051388;28;20029;-77
2021/01/23 11:09:26;;;;;;;16.50;6.35;;;8.10;73.20;;;;;;5052427;28;20462;-79
2021/01/23 11:11:52;;;;;;;14.05;6.00;;;8.00;73.70;;;;;;5052414;28;20143;-77
2021/01/23 11:14:17;;;;;;;13.55;6.18;;;7.90;73.50;;;;;;5051204;28;20025;-75
2021/01/23 11:16:43;;;;;;;14.68;6.32;;;7.90;73.70;;;;;;5052211;28;20024;-76
2021/01/23 11:19:09;;;;;;;14.70;5.77;;;7.80;74.60;;;;;;5053816;28;20104;-76
2021/01/23 11:21:35;;;;;;;15.25;6.95;;;7.90;73.30;;;;;;5052251;28;20029;-77
2021/01/23 11:24:01;;;;;;;14.10;6.10;;;7.50;75.00;;;;;;5053248;28;20033;-76
2021/01/23 11:26:27;;;;;;;14.10;6.60;;;7.60;75.50;;;;;;5052696;28;20068;-76
2021/01/23 11:28:52;;;;;;;22.45;12.25;;;7.80;75.60;;;;;;5051217;28;20490;-77
2021/01/23 11:31:19;;;;;;;20.63;10.45;;;8.10;74.20;;;;;;5034551;28;20033;-76
2021/01/23 11:33:45;;;;;;;20.27;7.32;;;8.10;72.90;;;;;;5053290;28;20367;-75
2021/01/23 11:36:11;;;;;;;17.25;6.90;;;8.20;73.60;;;;;;5054192;28;20116;-75
2021/01/23 11:38:36;;;;;;;14.82;7.10;;;8.20;73.30;;;;;;5053720;28;20029;-75
2021/01/23 11:41:02;;;;;;;22.85;9.65;;;8.10;73.90;;;;;;5054175;28;20462;-75
2021/01/23 11:43:28;;;;;;;14.05;8.70;;;8.00;74.00;;;;;;5052456;28;20025;-76
2021/01/23 11:45:53;;;;;;;19.88;9.55;;;8.10;74.60;;;;;;5036145;28;20373;-75
2021/01/23 11:48:19;;;;;;;15.90;8.32;;;8.20;73.90;;;;;;5052167;28;20048;-75
2021/01/23 11:50:44;;;;;;;14.63;8.00;;;8.30;73.10;;;;;;5053484;28;20033;-75
2021/01/23 11:53:10;;;;;;;13.10;6.90;;;8.40;72.40;;;;;;5053447;28;20029;-75
2021/01/23 11:55:36;;;;;;;15.25;7.85;;;8.20;73.10;;;;;;5053419;28;20526;-75
2021/01/23 11:58:01;;;;;;;21.73;8.93;;;8.30;73.90;;;;;;5053452;28;20029;-75
2021/01/23 12:00:27;;;;;;;12.93;6.35;;;8.40;73.00;;;;;;5053444;28;20084;-75
2021/01/23 12:02:52;;;;;;;16.45;7.38;;;8.50;71.60;;;;;;5053558;28;20385;-75
2021/01/23 12:05:21;;;;;;;13.77;6.93;;;8.40;72.80;;;;;;5053442;28;20501;-76
2021/01/23 12:07:47;;;;;;;16.23;7.68;;;8.10;72.90;;;;;;5053146;28;20478;-74
2021/01/23 12:10:14;;;;;;;18.08;7.38;;;8.00;74.00;;;;;;5053314;28;20029;-76
2021/01/23 12:12:40;;;;;;;15.35;7.53;;;8.00;73.50;;;;;;5052300;28;20112;-75
2021/01/23 12:15:06;;;;;;;14.98;7.63;;;8.30;72.60;;;;;;5053257;28;20100;-77
2021/01/23 12:17:32;;;;;;;22.33;8.32;;;8.30;72.30;;;;;;5053330;28;20029;-75
2021/01/23 12:19:58;;;;;;;11.73;7.13;;;8.50;71.90;;;;;;5056833;28;20450;-76
2021/01/23 12:22:23;;;;;;;18.85;7.13;;;8.30;72.00;;;;;;5057029;28;20055;-74
2021/01/23 12:24:49;;;;;;;13.38;8.02;;;8.20;72.50;;;;;;5057402;28;20029;-75
2021/01/23 12:27:14;;;;;;;28.92;12.25;;;8.20;73.50;;;;;;5057260;28;20090;-75
2021/01/23 12:29:40;;;;;;;22.20;9.88;;;8.20;73.50;;;;;;5057004;28;20056;-75
2021/01/23 12:32:08;;;;;;;15.40;7.88;;;8.00;73.10;;;;;;5056872;28;20029;-76
2021/01/23 12:34:34;;;;;;;18.90;8.15;;;7.90;73.40;;;;;;5055675;28;20425;-76
2021/01/23 12:36:59;;;;;;;14.95;8.07;;;7.90;74.50;;;;;;5038894;28;20070;-77
2021/01/23 12:39:25;;;;;;;16.45;8.00;;;8.00;73.60;;;;;;5055794;28;20033;-76
2021/01/23 12:41:50;;;;;;;17.27;7.60;;;7.80;73.90;;;;;;5054434;28;20037;-76
2021/01/23 12:44:17;;;;;;;14.73;7.60;;;7.60;73.70;;;;;;5055875;28;20312;-75
2021/01/23 12:46:43;;;;;;;15.02;8.52;;;7.20;75.80;;;;;;5056945;28;20021;-75
2021/01/23 12:49:08;;;;;;;15.20;8.00;;;7.30;76.60;;;;;;5056850;28;20086;-77
2021/01/23 12:51:34;;;;;;;17.70;7.78;;;7.30;75.50;;;;;;5056970;28;20056;-76